Wilson Creek, WA (98860)

10:31 AM PDT on July 28, 2016 (GMT -0700)
Wilson Creek | | Change Station

Elev 1276 ft 47.42 °N, 119.12 °W | Updated 12 seconds ago

Clear
Clear
90.9 °F
Feels Like 88 °F
N
0.2
Wind Variable Wind from NW
Gusts 2.5 mph

Today
High -- | Low -- °F
--% Chance of Precip.
Yesterday
High -- | Low -- °F
Precip. -- in
Pressure 30.02 in
Visibility 10.0 miles
Clouds Clear
Heat Index 88 °F
Dew Point 51 °F
Humidity 26%
Rainfall 0.00 in
Snow Depth Not available.
5:30 AM 8:34 PM
Waning Crescent, 30% visible
METAR KMWH 281652Z 01004KT 10SM CLR 31/12 A3005 RMK AO2 SLP164 T03060122
Pressure 30.02 in
Visibility 10.0 miles
Clouds Clear
Heat Index 88 °F
Dew Point 51 °F
Humidity 26%
Rainfall 0.00 in
Snow Depth Not available.
5:30 AM 8:34 PM
Waning Crescent, 30% visible
METAR KMWH 281652Z 01004KT 10SM CLR 31/12 A3005 RMK AO2 SLP164 T03060122

10-Day Weather Forecast

Almanac

Astronomy

Jul. 28, 2016 Rise Set
Actual Time
Civil Twilight
Nautical Twilight
Astronomical Twilight
Moon
Length of Visible Light
Length of Day
Tomorrow will be .
, % of the Moon is Illuminated

Today's Extremes

State Highs State Lows

Community

WunderPhotos

Upload Photos

1,928,163 photos uploaded!

WunderBlog® & News

Nearby

Air Quality

  Air Quality AQ Index Pollutant
Not available.

Snow Depth

Station Depth Elevation

Earthquake Activity

City Distance Mag. Time & Date
Minimum magnitude displayed is 2.5.

Coastal Water Temperatures

Place Temperature

Stations

Nearby Weather Stations

Station Location Temp. Windchill Dew Point Humidity Wind Precip. Elev Updated Type
                   

Watches & Warnings

There are currently no watches in effect.